createdAt,value
2018-02-15T00:01:26.799Z,43.5
2018-02-15T00:11:26.428Z,36.7
2018-02-15T00:21:29.528Z,39.6
2018-02-15T00:31:30.754Z,40.1
2018-02-15T00:41:27.841Z,41.9
2018-02-15T00:51:26.248Z,45.8
2018-02-15T01:01:26.800Z,37.7
2018-02-15T01:11:26.428Z,38.8
2018-02-15T01:21:27.667Z,37.9
2018-02-15T01:31:27.131Z,33.9
2018-02-15T01:41:29.790Z,41.2
2018-02-15T01:51:26.839Z,44.2
2018-02-15T02:01:26.618Z,43.7
2018-02-15T02:11:27.890Z,44.9
2018-02-15T02:21:26.433Z,42.6
2018-02-15T02:31:28.352Z,43.1
2018-02-15T02:41:29.593Z,41.4
2018-02-15T02:51:27.437Z,44.1
2018-02-15T03:01:28.218Z,47.8
2018-02-15T03:11:26.612Z,43.5
2018-02-15T03:21:27.725Z,43.0
2018-02-15T03:31:29.384Z,45.6
2018-02-15T03:41:27.878Z,45.5
2018-02-15T03:51:26.931Z,46.5
2018-02-15T04:01:26.330Z,47.3
2018-02-15T04:11:29.225Z,48.8
2018-02-15T04:21:26.950Z,51.2
2018-02-15T04:31:28.110Z,54.6
2018-02-15T04:41:28.526Z,53.3
2018-02-15T04:51:27.231Z,60.4
2018-02-15T05:01:27.814Z,57.7
2018-02-15T05:11:29.633Z,50.4
2018-02-15T05:21:26.198Z,48.1
2018-02-15T05:31:28.775Z,53.8
2018-02-15T05:41:28.444Z,53.8
2018-02-15T05:51:28.905Z,46.6
2018-02-15T06:01:26.594Z,49.8
2018-02-15T06:11:28.908Z,50.8
2018-02-15T06:21:28.599Z,50.5
2018-02-15T06:31:27.256Z,52.7
2018-02-15T06:41:29.387Z,62.9
2018-02-15T06:51:27.272Z,68.6
2018-02-15T07:01:26.819Z,62.0
2018-02-15T07:11:26.250Z,51.8
2018-02-15T07:21:28.681Z,59.7
2018-02-15T07:31:27.392Z,59.2
2018-02-15T07:41:27.221Z,57.6
2018-02-15T07:51:27.018Z,53.5
2018-02-15T08:01:26.438Z,43.6
2018-02-15T08:11:26.913Z,41.7
2018-02-15T08:21:27.995Z,47.0
2018-02-15T08:31:28.146Z,42.7
2018-02-15T08:41:26.400Z,40.9
2018-02-15T08:51:28.587Z,40.4
2018-02-15T09:01:27.899Z,49.2
2018-02-15T09:11:26.547Z,39.5
2018-02-15T09:21:26.758Z,39.0
2018-02-15T09:31:27.648Z,45.9
2018-02-15T09:41:26.950Z,53.6
2018-02-15T09:51:28.164Z,56.4
2018-02-15T10:01:26.680Z,44.3
2018-02-15T10:11:27.099Z,39.6
2018-02-15T10:21:27.343Z,43.9
2018-02-15T10:31:26.860Z,45.4
2018-02-15T10:41:26.279Z,46.7
2018-02-15T10:51:26.753Z,48.8
2018-02-15T11:01:26.704Z,48.4
2018-02-15T11:11:26.301Z,43.8
2018-02-15T11:21:29.236Z,44.6
2018-02-15T11:31:28.698Z,44.0
2018-02-15T11:41:26.973Z,50.0
2018-02-15T11:51:26.639Z,52.5
2018-02-15T12:01:27.154Z,52.4
2018-02-15T12:11:26.872Z,53.3
2018-02-15T12:21:28.338Z,58.0
2018-02-15T12:31:31.572Z,63.1
2018-02-15T12:41:29.283Z,56.0
2018-02-15T12:51:28.105Z,58.5
2018-02-15T13:01:27.344Z,58.2
2018-02-15T13:11:28.712Z,65.3
2018-02-15T13:21:26.996Z,49.8
2018-02-15T13:31:29.505Z,59.4
2018-02-15T13:41:28.032Z,56.6
2018-02-15T13:51:28.144Z,60.1
2018-02-15T14:01:26.970Z,59.4
2018-02-15T14:11:26.612Z,70.5
2018-02-15T14:21:27.419Z,60.0
2018-02-15T14:31:26.908Z,66.1
2018-02-15T14:41:29.358Z,68.1
2018-02-15T14:51:26.747Z,61.3
2018-02-15T15:01:28.587Z,66.4
2018-02-15T15:11:27.629Z,61.8
2018-02-15T15:21:26.148Z,66.2
2018-02-15T15:31:26.530Z,75.9
2018-02-15T15:41:26.963Z,66.7
2018-02-15T15:51:27.655Z,65.8
2018-02-15T16:01:27.045Z,64.7
2018-02-15T16:11:26.554Z,74.0
2018-02-15T16:21:26.853Z,64.0
2018-02-15T16:31:26.842Z,68.2
2018-02-15T16:41:28.187Z,69.1
2018-02-15T16:51:28.414Z,80.2
2018-02-15T17:01:28.525Z,76.2
2018-02-15T17:11:28.468Z,91.8
2018-02-15T17:21:28.055Z,97.6
2018-02-15T17:31:27.757Z,97.5
2018-02-15T17:41:29.432Z,94.5
2018-02-15T17:51:26.838Z,113.3
2018-02-15T18:01:27.205Z,104.3
2018-02-15T18:11:26.673Z,110.0
2018-02-15T18:21:30.184Z,112.8
2018-02-15T18:31:26.701Z,129.9
2018-02-15T18:41:28.752Z,131.8
2018-02-15T18:51:26.175Z,120.5
2018-02-15T19:01:29.323Z,124.3
2018-02-15T19:11:28.558Z,109.9
2018-02-15T19:21:26.509Z,125.4
2018-02-15T19:31:28.734Z,142.2
2018-02-15T19:41:26.588Z,155.7
2018-02-15T19:51:27.209Z,147.1
2018-02-15T20:01:27.445Z,156.7
2018-02-15T20:11:27.252Z,169.5
2018-02-15T20:21:27.339Z,151.2
2018-02-15T20:31:27.296Z,158.4
2018-02-15T20:41:38.242Z,153.1
2018-02-15T20:51:27.020Z,141.9
2018-02-15T21:01:29.722Z,170.8
2018-02-15T21:11:27.082Z,172.4
2018-02-15T21:21:27.814Z,155.9
2018-02-15T21:31:28.616Z,155.9
2018-02-15T21:41:27.242Z,165.0
2018-02-15T21:51:28.501Z,159.1
2018-02-15T22:01:26.847Z,164.2
2018-02-15T22:11:26.648Z,156.3
2018-02-15T22:21:26.292Z,156.9
2018-02-15T22:31:28.172Z,157.1
2018-02-15T22:41:28.587Z,136.3
2018-02-15T22:51:27.056Z,142.5
2018-02-15T23:01:26.695Z,163.3
2018-02-15T23:11:28.119Z,147.3
2018-02-15T23:21:28.251Z,163.2
2018-02-15T23:31:26.686Z,154.8
2018-02-15T23:41:27.145Z,154.1
2018-02-15T23:51:27.240Z,140.0
